createdAt,value
2018-03-11T00:02:00.937Z,45.93
2018-03-11T00:04:28.414Z,44.33
2018-03-11T00:06:56.784Z,44.07
2018-03-11T00:09:25.029Z,43.87
2018-03-11T00:11:52.525Z,44.93
2018-03-11T00:14:20.760Z,43.33
2018-03-11T00:16:48.240Z,49.10
2018-03-11T00:19:15.697Z,43.77
2018-03-11T00:21:43.957Z,55.03
2018-03-11T00:24:11.421Z,46.57
2018-03-11T00:26:39.061Z,48.23
2018-03-11T00:29:06.529Z,45.90
2018-03-11T00:31:34.013Z,47.63
2018-03-11T00:34:01.482Z,51.87
2018-03-11T00:36:28.964Z,44.30
2018-03-11T00:38:56.429Z,49.50
2018-03-11T00:41:23.905Z,49.80
2018-03-11T00:43:51.386Z,49.40
2018-03-11T00:46:19.624Z,49.13
2018-03-11T00:48:47.105Z,48.80
2018-03-11T00:51:14.571Z,57.40
2018-03-11T00:53:42.062Z,58.33
2018-03-11T00:56:09.528Z,57.60
2018-03-11T00:58:37.021Z,64.73
2018-03-11T01:01:04.484Z,66.07
2018-03-11T01:03:31.957Z,72.80
2018-03-11T01:05:59.466Z,75.83
2018-03-11T01:08:26.948Z,84.53
2018-03-11T01:10:54.419Z,251.50
2018-03-11T01:13:21.913Z,189.50
2018-03-11T01:15:50.146Z,78.87
2018-03-11T01:18:17.640Z,303.37
2018-03-11T01:20:45.874Z,260.30
2018-03-11T01:23:13.353Z,253.10
2018-03-11T01:25:40.812Z,296.53
2018-03-11T01:28:08.300Z,408.30
2018-03-11T01:30:35.772Z,402.83
2018-03-11T01:33:03.253Z,539.17
2018-03-11T01:35:30.733Z,312.00
2018-03-11T01:37:58.200Z,443.03
2018-03-11T01:40:25.685Z,400.93
2018-03-11T01:42:53.169Z,219.13
2018-03-11T01:45:20.641Z,198.30
2018-03-11T01:47:48.108Z,92.13
2018-03-11T01:50:15.601Z,136.47
2018-03-11T01:52:55.669Z,254.97
2018-03-11T01:55:23.150Z,117.90
2018-03-11T01:57:50.661Z,360.30
2018-03-11T02:00:18.143Z,119.97
2018-03-11T02:02:45.618Z,153.17
2018-03-11T02:05:13.090Z,84.37
2018-03-11T02:07:40.552Z,93.07
2018-03-11T02:10:08.032Z,111.87
2018-03-11T02:12:35.489Z,83.90
2018-03-11T02:15:02.989Z,178.87
2018-03-11T02:17:30.456Z,104.30
2018-03-11T02:19:57.924Z,247.23
2018-03-11T02:22:25.405Z,111.03
2018-03-11T02:24:52.878Z,168.97
2018-03-11T02:27:20.350Z,95.17
2018-03-11T02:29:48.580Z,116.67
2018-03-11T02:32:16.060Z,152.67
2018-03-11T02:34:43.539Z,134.27
2018-03-11T02:37:11.796Z,315.10
2018-03-11T02:39:39.268Z,257.80
2018-03-11T02:42:06.744Z,223.10
2018-03-11T02:44:34.221Z,385.73
2018-03-11T02:47:01.713Z,182.03
2018-03-11T02:49:29.184Z,204.80
2018-03-11T02:51:57.473Z,166.87
2018-03-11T02:54:25.588Z,114.67
2018-03-11T02:56:53.076Z,124.40
2018-03-11T02:59:20.545Z,112.73
2018-03-11T03:01:48.024Z,166.57
2018-03-11T03:04:16.269Z,110.60
2018-03-11T03:06:43.753Z,104.73
2018-03-11T03:09:11.228Z,143.00
2018-03-11T03:11:39.472Z,106.23
2018-03-11T03:14:06.939Z,141.93
2018-03-11T03:16:34.419Z,139.43
2018-03-11T03:19:02.653Z,271.50
2018-03-11T03:21:30.116Z,118.77
2018-03-11T03:23:57.601Z,214.20
2018-03-11T03:26:25.832Z,112.60
2018-03-11T03:28:53.319Z,111.50
2018-03-11T03:31:20.787Z,190.33
2018-03-11T03:33:49.033Z,242.63
2018-03-11T03:36:16.502Z,212.07
2018-03-11T03:38:44.756Z,116.00
2018-03-11T03:41:12.218Z,139.43
2018-03-11T03:43:39.723Z,111.50
2018-03-11T03:46:07.940Z,106.40
2018-03-11T03:48:35.444Z,102.63
2018-03-11T03:51:03.675Z,99.50
2018-03-11T03:53:31.161Z,95.43
2018-03-11T03:55:58.624Z,87.27
2018-03-11T03:58:26.116Z,85.67
2018-03-11T04:00:53.592Z,88.27
2018-03-11T04:03:21.073Z,91.97
2018-03-11T04:05:48.537Z,79.37
2018-03-11T04:08:16.020Z,68.93
2018-03-11T04:10:44.260Z,71.27
2018-03-11T04:13:11.760Z,73.80
2018-03-11T04:15:39.255Z,79.83
2018-03-11T04:18:06.716Z,75.40
2018-03-11T04:20:34.188Z,74.40
2018-03-11T04:23:01.654Z,72.40
2018-03-11T04:25:29.124Z,77.87
2018-03-11T04:27:56.589Z,72.90
2018-03-11T04:30:24.067Z,75.60
2018-03-11T04:32:51.529Z,77.13
2018-03-11T04:35:19.016Z,79.10
2018-03-11T04:37:46.474Z,75.93
2018-03-11T04:40:13.953Z,75.23
2018-03-11T04:42:41.435Z,71.90
2018-03-11T04:45:09.672Z,67.53
2018-03-11T04:47:37.132Z,64.47
2018-03-11T04:50:04.609Z,65.30
2018-03-11T04:52:32.079Z,59.73
2018-03-11T04:55:00.325Z,63.80
2018-03-11T04:57:27.789Z,64.00
2018-03-11T04:59:55.292Z,62.87
2018-03-11T05:02:22.768Z,59.40
2018-03-11T05:04:50.228Z,58.53
2018-03-11T05:07:17.733Z,58.20
2018-03-11T05:09:45.286Z,51.17
2018-03-11T05:12:12.757Z,53.40
2018-03-11T05:14:41.001Z,56.20
2018-03-11T05:17:08.474Z,57.50
2018-03-11T05:19:36.688Z,48.57
2018-03-11T05:22:04.166Z,46.73
2018-03-11T05:24:31.629Z,48.03
2018-03-11T05:26:59.111Z,45.53
2018-03-11T05:29:26.573Z,44.63
2018-03-11T05:31:54.140Z,42.97
2018-03-11T05:34:21.600Z,43.83
2018-03-11T05:36:49.080Z,41.73
2018-03-11T05:39:17.313Z,47.43
2018-03-11T05:41:44.773Z,43.57
2018-03-11T05:44:12.257Z,42.03
2018-03-11T05:46:39.751Z,48.83
2018-03-11T05:49:07.229Z,43.77
2018-03-11T05:51:34.686Z,43.13
2018-03-11T05:54:02.180Z,41.83
2018-03-11T05:56:29.661Z,41.47
2018-03-11T05:58:57.140Z,44.47
2018-03-11T06:01:24.596Z,42.53
2018-03-11T06:03:52.092Z,42.27
2018-03-11T06:06:19.544Z,41.47
2018-03-11T06:08:47.057Z,41.67
2018-03-11T06:11:14.528Z,44.93
2018-03-11T06:13:42.001Z,41.57
2018-03-11T06:16:09.477Z,40.53
2018-03-11T06:18:37.047Z,40.43
2018-03-11T06:21:04.620Z,40.53
2018-03-11T06:23:32.879Z,36.90
2018-03-11T06:26:00.338Z,38.50
2018-03-11T06:28:27.793Z,36.07
2018-03-11T06:30:56.041Z,37.10
2018-03-11T06:33:23.544Z,37.70
2018-03-11T06:35:51.789Z,37.73
2018-03-11T06:38:19.265Z,36.87
2018-03-11T06:40:46.741Z,38.70
2018-03-11T06:43:14.978Z,37.40
2018-03-11T06:45:42.603Z,36.67
2018-03-11T06:48:10.065Z,37.57
2018-03-11T06:50:37.545Z,37.90
2018-03-11T06:53:05.005Z,33.93
2018-03-11T06:55:32.490Z,40.20
2018-03-11T06:57:59.982Z,37.07
2018-03-11T07:00:27.476Z,37.67
2018-03-11T07:02:54.935Z,37.80
2018-03-11T07:05:22.412Z,39.70
2018-03-11T07:07:49.874Z,38.10
2018-03-11T07:10:17.337Z,42.50
2018-03-11T07:12:45.593Z,41.17
2018-03-11T07:15:13.110Z,43.30
2018-03-11T07:17:40.609Z,44.73
2018-03-11T07:20:08.078Z,41.07
2018-03-11T07:22:35.560Z,41.97
2018-03-11T07:25:03.798Z,41.27
2018-03-11T07:27:31.288Z,40.53
2018-03-11T07:29:59.513Z,41.50
2018-03-11T07:32:27.002Z,36.90
2018-03-11T07:34:54.460Z,34.73
2018-03-11T07:37:21.945Z,31.80
2018-03-11T07:39:49.420Z,36.00
2018-03-11T07:42:16.917Z,28.73
2018-03-11T07:44:44.389Z,29.90
2018-03-11T07:47:11.865Z,32.87
2018-03-11T07:49:40.100Z,30.10
2018-03-11T07:52:07.593Z,29.53
2018-03-11T07:54:35.833Z,29.30
2018-03-11T07:57:03.302Z,27.87
2018-03-11T07:59:30.786Z,31.27
2018-03-11T08:01:59.028Z,28.90
2018-03-11T08:04:26.615Z,26.20
2018-03-11T08:06:54.848Z,30.33
2018-03-11T08:09:22.329Z,26.07
2018-03-11T08:11:49.788Z,24.13
2018-03-11T08:14:17.535Z,29.47
2018-03-11T08:16:45.021Z,25.53
2018-03-11T08:19:12.500Z,26.47
2018-03-11T08:21:39.969Z,25.57
2018-03-11T08:24:07.465Z,25.63
2018-03-11T08:26:34.935Z,24.73
2018-03-11T08:29:02.432Z,24.20
2018-03-11T08:31:29.901Z,22.80
2018-03-11T08:33:57.392Z,22.10
2018-03-11T08:36:24.862Z,23.33
2018-03-11T08:38:53.154Z,26.57
2018-03-11T08:41:21.401Z,21.60
2018-03-11T08:43:48.887Z,22.10
2018-03-11T08:46:16.350Z,23.07
2018-03-11T08:48:44.588Z,24.53
2018-03-11T08:51:12.069Z,25.57
2018-03-11T08:53:39.529Z,23.23
2018-03-11T08:56:07.015Z,22.37
2018-03-11T08:58:34.485Z,22.63
2018-03-11T09:01:01.974Z,22.70
2018-03-11T09:03:29.448Z,21.63
2018-03-11T09:05:56.941Z,23.07
2018-03-11T09:08:25.172Z,20.93
2018-03-11T09:10:52.759Z,24.80
2018-03-11T09:13:20.993Z,22.17
2018-03-11T09:15:48.513Z,21.93
2018-03-11T09:18:16.726Z,23.57
2018-03-11T09:20:44.209Z,23.97
2018-03-11T09:23:11.677Z,24.37
2018-03-11T09:25:39.928Z,22.77
2018-03-11T09:28:07.398Z,25.27
2018-03-11T09:30:36.847Z,28.50
2018-03-11T09:33:04.341Z,22.23
2018-03-11T09:35:31.828Z,23.37
2018-03-11T09:37:59.301Z,22.70
2018-03-11T09:40:27.711Z,23.87
2018-03-11T09:42:56.004Z,21.60
2018-03-11T09:45:23.567Z,22.93
2018-03-11T09:47:51.089Z,28.33
2018-03-11T09:50:18.659Z,22.20
2018-03-11T09:52:46.146Z,23.77
2018-03-11T09:55:13.671Z,25.17
2018-03-11T09:57:41.190Z,27.93
2018-03-11T10:00:08.665Z,23.87
2018-03-11T10:02:36.914Z,24.60
2018-03-11T10:05:04.387Z,23.80
2018-03-11T10:07:32.642Z,25.83
2018-03-11T10:10:00.869Z,22.63
2018-03-11T10:12:28.357Z,24.00
2018-03-11T10:14:55.834Z,19.87
2018-03-11T10:17:23.353Z,21.07
2018-03-11T10:19:50.817Z,23.50
2018-03-11T10:22:18.336Z,24.77
2018-03-11T10:24:46.585Z,20.00
2018-03-11T10:27:14.070Z,24.63
2018-03-11T10:29:42.312Z,24.87
2018-03-11T10:32:09.818Z,24.83
2018-03-11T10:34:37.321Z,23.20
2018-03-11T10:37:04.785Z,24.67
2018-03-11T10:39:32.273Z,24.40
2018-03-11T10:42:00.508Z,21.40
2018-03-11T10:44:28.050Z,20.73
2018-03-11T10:46:55.494Z,22.27
2018-03-11T10:49:22.977Z,20.70
2018-03-11T10:51:50.456Z,21.17
2018-03-11T10:54:18.741Z,21.60
2018-03-11T10:56:46.983Z,22.10
2018-03-11T10:59:14.457Z,22.25
2018-03-11T11:01:45.897Z,23.77
2018-03-11T11:04:15.200Z,21.93
2018-03-11T11:06:42.679Z,24.57
2018-03-11T11:09:10.173Z,20.87
2018-03-11T11:11:37.649Z,20.97
2018-03-11T11:14:05.124Z,24.80
2018-03-11T11:16:32.600Z,19.50
2018-03-11T11:19:00.107Z,20.27
2018-03-11T11:21:27.595Z,21.30
2018-03-11T11:23:55.068Z,17.43
2018-03-11T11:26:22.571Z,21.70
2018-03-11T11:28:50.049Z,20.77
2018-03-11T11:31:17.557Z,20.03
2018-03-11T11:33:45.034Z,17.10
2018-03-11T11:36:12.527Z,16.80
2018-03-11T11:41:13.835Z,16.13
2018-03-11T11:43:41.299Z,18.00
2018-03-11T11:46:09.613Z,16.80
2018-03-11T11:48:37.839Z,17.80
2018-03-11T11:51:05.305Z,19.40
2018-03-11T11:53:33.588Z,17.23
2018-03-11T11:56:01.848Z,22.53
2018-03-11T11:58:29.321Z,21.73
2018-03-11T12:00:57.626Z,18.20
2018-03-11T12:03:25.106Z,19.60
2018-03-11T12:05:52.636Z,19.93
2018-03-11T12:08:21.012Z,21.27
2018-03-11T12:10:48.485Z,20.60
2018-03-11T12:13:16.004Z,22.80
2018-03-11T12:15:44.251Z,23.20
2018-03-11T12:18:11.742Z,22.27
2018-03-11T12:20:39.228Z,21.47
2018-03-11T12:23:06.733Z,23.73
2018-03-11T12:25:34.207Z,23.17
2018-03-11T12:28:02.471Z,21.53
2018-03-11T12:30:29.957Z,19.90
2018-03-11T12:32:57.442Z,21.43
2018-03-11T12:35:24.914Z,21.83
2018-03-11T12:37:52.394Z,19.60
2018-03-11T12:40:21.366Z,21.27
2018-03-11T12:42:48.868Z,22.97
2018-03-11T12:45:17.147Z,21.07
2018-03-11T12:47:44.597Z,21.80
2018-03-11T12:50:12.829Z,26.23
2018-03-11T12:52:40.307Z,23.63
2018-03-11T12:55:07.810Z,21.30
2018-03-11T12:57:35.293Z,20.23
2018-03-11T13:00:02.766Z,18.43
2018-03-11T13:02:30.257Z,21.80
2018-03-11T13:04:58.513Z,21.67
2018-03-11T13:07:26.004Z,21.43
2018-03-11T13:09:54.253Z,20.53
2018-03-11T13:12:22.524Z,23.63
2018-03-11T13:14:49.994Z,20.53
2018-03-11T13:17:18.249Z,21.20
2018-03-11T13:19:46.490Z,22.53
2018-03-11T13:22:13.987Z,21.10
2018-03-11T13:24:41.464Z,21.83
2018-03-11T13:27:09.715Z,21.50
2018-03-11T13:29:37.180Z,19.37
2018-03-11T13:32:16.628Z,16.67
2018-03-11T13:34:44.893Z,16.97
2018-03-11T13:37:13.170Z,22.10
2018-03-11T13:39:52.819Z,23.73
2018-03-11T13:42:20.302Z,18.53
2018-03-11T13:44:47.770Z,17.73
2018-03-11T13:47:15.289Z,17.13
2018-03-11T13:49:42.751Z,16.73
2018-03-11T13:52:22.844Z,19.57
2018-03-11T13:54:50.314Z,20.33
2018-03-11T14:00:25.693Z,19.67
2018-03-11T14:02:53.189Z,16.53
2018-03-11T14:05:21.422Z,16.93
2018-03-11T14:07:48.912Z,16.93
2018-03-11T14:10:17.334Z,16.90
2018-03-11T14:12:44.853Z,14.87
2018-03-11T14:15:13.101Z,14.40
2018-03-11T14:17:40.585Z,15.97
2018-03-11T14:20:08.830Z,14.57
2018-03-11T14:22:36.298Z,14.03
2018-03-11T14:25:03.817Z,15.73
2018-03-11T14:27:31.290Z,15.50
2018-03-11T14:29:58.768Z,16.93
2018-03-11T14:32:26.236Z,14.00
2018-03-11T14:34:53.740Z,13.67
2018-03-11T14:37:21.205Z,14.90
2018-03-11T14:39:48.686Z,16.50
2018-03-11T14:42:16.185Z,13.97
2018-03-11T14:44:43.673Z,14.30
2018-03-11T14:47:11.136Z,12.13
2018-03-11T14:49:38.656Z,12.53
2018-03-11T14:52:06.895Z,11.20
2018-03-11T14:54:34.397Z,11.40
2018-03-11T14:57:03.130Z,14.30
2018-03-11T14:59:30.632Z,12.83
2018-03-11T15:01:58.861Z,13.23
2018-03-11T15:04:26.361Z,10.77
2018-03-11T15:06:54.579Z,11.27
2018-03-11T15:09:22.062Z,9.37
2018-03-11T15:11:49.526Z,11.43
2018-03-11T15:14:17.009Z,10.43
2018-03-11T15:16:45.233Z,9.40
2018-03-11T15:19:12.771Z,10.23
2018-03-11T15:21:40.241Z,9.23
2018-03-11T15:24:07.762Z,7.50
2018-03-11T15:26:36.037Z,10.00
2018-03-11T15:29:04.303Z,10.20
2018-03-11T15:31:31.784Z,9.80
2018-03-11T15:34:00.025Z,9.80
2018-03-11T15:36:27.489Z,8.03
2018-03-11T15:38:54.966Z,8.57
2018-03-11T15:41:23.203Z,8.40
2018-03-11T15:43:50.684Z,10.60
2018-03-11T15:46:18.920Z,9.53
2018-03-11T15:48:46.415Z,9.87
2018-03-11T15:51:13.878Z,10.00
2018-03-11T15:53:42.121Z,10.40
2018-03-11T15:56:09.584Z,10.20
2018-03-11T15:58:37.068Z,10.03
2018-03-11T16:01:05.289Z,9.70
2018-03-11T16:03:32.780Z,11.10
2018-03-11T16:06:00.264Z,10.03
2018-03-11T16:08:28.526Z,11.07
2018-03-11T16:10:55.992Z,10.13
2018-03-11T16:13:24.233Z,10.17
2018-03-11T16:15:51.697Z,9.63
2018-03-11T16:18:19.178Z,10.37
2018-03-11T16:20:47.422Z,11.43
2018-03-11T16:23:15.018Z,19.30
2018-03-11T16:25:43.257Z,14.93
2018-03-11T16:28:10.737Z,10.93
2018-03-11T16:30:38.210Z,9.93
2018-03-11T16:33:06.437Z,12.27
2018-03-11T16:35:33.918Z,11.13
2018-03-11T16:38:01.393Z,11.43
2018-03-11T16:40:28.897Z,12.00
2018-03-11T16:42:56.440Z,12.37
2018-03-11T16:45:23.949Z,11.57
2018-03-11T16:47:51.453Z,12.90
2018-03-11T16:50:18.948Z,16.17
2018-03-11T16:52:46.461Z,10.07
2018-03-11T16:55:14.795Z,10.00
2018-03-11T16:57:42.266Z,11.30
2018-03-11T17:00:09.797Z,11.60
2018-03-11T17:02:37.279Z,12.30
2018-03-11T17:05:04.809Z,13.17
2018-03-11T17:07:32.307Z,11.63
2018-03-11T17:09:59.846Z,13.10
2018-03-11T17:12:27.306Z,11.57
2018-03-11T17:14:54.784Z,10.67
2018-03-11T17:17:23.023Z,11.93
2018-03-11T17:19:50.504Z,12.57
2018-03-11T17:22:18.070Z,15.50
2018-03-11T17:24:46.337Z,13.80
2018-03-11T17:27:15.319Z,13.77
2018-03-11T17:29:42.805Z,13.97
2018-03-11T17:32:11.047Z,14.50
2018-03-11T17:34:38.569Z,15.80
2018-03-11T17:37:06.038Z,15.77
2018-03-11T17:39:33.534Z,17.07
2018-03-11T17:42:00.996Z,16.53
2018-03-11T17:44:28.556Z,14.47
2018-03-11T17:46:56.021Z,14.67
2018-03-11T17:49:24.268Z,16.13
2018-03-11T17:51:51.734Z,16.13
2018-03-11T17:54:19.213Z,16.77
2018-03-11T17:56:47.447Z,16.30
2018-03-11T17:59:14.960Z,17.67
2018-03-11T18:01:43.193Z,15.20
2018-03-11T18:04:10.687Z,15.83
2018-03-11T18:06:38.933Z,16.10
2018-03-11T18:09:06.419Z,18.70
2018-03-11T18:11:34.653Z,16.47
2018-03-11T18:14:02.133Z,17.57
2018-03-11T18:16:29.606Z,21.43
2018-03-11T18:18:57.854Z,18.47
2018-03-11T18:21:25.440Z,19.58
2018-03-11T18:23:53.694Z,18.03
2018-03-11T18:26:21.170Z,20.77
2018-03-11T18:28:49.426Z,18.23
2018-03-11T18:31:16.900Z,17.73
2018-03-11T18:33:45.153Z,17.90
2018-03-11T18:36:12.632Z,17.40
2018-03-11T18:38:40.124Z,19.83
2018-03-11T18:41:07.616Z,20.03
2018-03-11T18:43:35.153Z,17.93
2018-03-11T18:46:03.365Z,21.40
2018-03-11T18:48:30.832Z,22.03
2018-03-11T18:50:58.320Z,19.87
2018-03-11T18:53:25.787Z,18.77
2018-03-11T18:55:53.317Z,17.03
2018-03-11T18:58:21.558Z,19.43
2018-03-11T19:00:49.032Z,20.07
2018-03-11T19:03:16.493Z,24.47
2018-03-11T19:05:43.981Z,18.30
2018-03-11T19:08:11.465Z,19.50
2018-03-11T19:10:38.992Z,22.17
2018-03-11T19:13:06.471Z,21.83
2018-03-11T19:15:33.965Z,20.47
2018-03-11T19:18:01.457Z,22.07
2018-03-11T19:20:29.043Z,21.10
2018-03-11T19:22:56.542Z,20.47
2018-03-11T19:25:24.021Z,25.30
2018-03-11T19:27:52.252Z,23.40
2018-03-11T19:30:19.731Z,22.30
2018-03-11T19:32:47.232Z,24.17
2018-03-11T19:35:15.475Z,23.30
2018-03-11T19:37:42.952Z,24.20
2018-03-11T19:40:11.198Z,21.80
2018-03-11T19:42:40.190Z,22.83
2018-03-11T19:45:07.688Z,22.43
2018-03-11T19:47:35.172Z,21.70
2018-03-11T19:50:02.661Z,22.70
2018-03-11T19:52:30.130Z,22.33
2018-03-11T19:54:57.632Z,23.50
2018-03-11T19:57:25.114Z,22.73
2018-03-11T19:59:52.604Z,21.67
2018-03-11T20:02:20.067Z,22.40
2018-03-11T20:04:47.533Z,21.43
2018-03-11T20:07:15.790Z,25.97
2018-03-11T20:09:43.261Z,22.87
2018-03-11T20:12:11.509Z,24.73
2018-03-11T20:14:38.972Z,27.63
2018-03-11T20:17:06.470Z,26.83
2018-03-11T20:19:33.964Z,26.23
2018-03-11T20:22:01.444Z,24.23
2018-03-11T20:24:28.933Z,19.67
2018-03-11T20:26:57.184Z,21.67
2018-03-11T20:29:24.662Z,20.43
2018-03-11T20:31:52.925Z,23.20
2018-03-11T20:34:20.393Z,23.73
2018-03-11T20:36:48.664Z,23.47
2018-03-11T20:39:16.892Z,24.00
2018-03-11T20:41:44.377Z,22.77
2018-03-11T20:44:11.850Z,24.37
2018-03-11T20:46:39.342Z,26.20
2018-03-11T20:49:06.804Z,26.03
2018-03-11T20:51:34.303Z,23.30
2018-03-11T20:54:01.785Z,22.93
2018-03-11T20:56:29.256Z,22.63
2018-03-11T20:58:57.508Z,23.90
2018-03-11T21:01:25.772Z,25.17
2018-03-11T21:03:53.344Z,22.47
2018-03-11T21:06:21.665Z,23.60
2018-03-11T21:08:49.224Z,23.27
2018-03-11T21:11:16.741Z,22.50
2018-03-11T21:13:44.301Z,23.97
2018-03-11T21:16:11.795Z,26.77
2018-03-11T21:18:39.249Z,23.00
2018-03-11T21:21:06.745Z,23.40
2018-03-11T21:23:34.213Z,24.50
2018-03-11T21:26:01.715Z,23.70
2018-03-11T21:28:29.182Z,22.70
2018-03-11T21:30:56.661Z,25.23
2018-03-11T21:33:24.135Z,23.13
2018-03-11T21:35:51.632Z,24.67
2018-03-11T21:38:19.871Z,24.33
2018-03-11T21:40:48.200Z,25.27
2018-03-11T21:43:15.661Z,24.20
2018-03-11T21:45:43.148Z,23.93
2018-03-11T21:48:10.614Z,24.57
2018-03-11T21:50:38.111Z,27.17
2018-03-11T21:53:05.708Z,25.87
2018-03-11T21:55:33.198Z,24.57
2018-03-11T21:58:00.687Z,26.10
2018-03-11T22:00:28.934Z,23.93
2018-03-11T22:02:56.410Z,24.70
2018-03-11T22:05:23.902Z,26.50
2018-03-11T22:07:51.387Z,26.37
2018-03-11T22:10:18.872Z,23.57
2018-03-11T22:12:46.338Z,22.30
2018-03-11T22:15:13.920Z,24.47
2018-03-11T22:17:42.157Z,27.67
2018-03-11T22:20:09.642Z,26.67
2018-03-11T22:22:37.875Z,25.90
2018-03-11T22:25:05.344Z,26.17
2018-03-11T22:27:32.830Z,24.97
2018-03-11T22:30:00.315Z,27.10
2018-03-11T22:32:27.809Z,24.10
2018-03-11T22:34:55.279Z,25.30
2018-03-11T22:37:22.761Z,26.83
2018-03-11T22:39:51.003Z,24.87
2018-03-11T22:42:18.486Z,27.00
2018-03-11T22:44:46.012Z,23.70
2018-03-11T22:47:13.499Z,26.23
2018-03-11T22:49:40.973Z,28.13
2018-03-11T22:52:09.228Z,25.43
2018-03-11T22:54:36.692Z,24.67
2018-03-11T22:57:04.173Z,25.47
2018-03-11T22:59:31.655Z,27.67
2018-03-11T23:01:59.144Z,26.03
2018-03-11T23:04:26.636Z,28.40
2018-03-11T23:06:54.885Z,27.07
2018-03-11T23:09:22.369Z,26.50
2018-03-11T23:11:50.629Z,26.03
2018-03-11T23:14:18.888Z,25.20
2018-03-11T23:16:46.368Z,26.70
2018-03-11T23:19:23.556Z,26.13
2018-03-11T23:21:51.802Z,23.97
2018-03-11T23:24:19.290Z,27.67
2018-03-11T23:26:47.538Z,23.07
2018-03-11T23:29:15.001Z,27.40
2018-03-11T23:31:42.494Z,27.33
2018-03-11T23:34:10.014Z,26.97
2018-03-11T23:36:37.504Z,28.03
2018-03-11T23:39:05.737Z,26.67
2018-03-11T23:41:33.217Z,24.23
2018-03-11T23:44:01.617Z,27.77
2018-03-11T23:46:29.877Z,26.80
2018-03-11T23:48:58.113Z,24.30
2018-03-11T23:51:25.572Z,26.73
2018-03-11T23:53:53.058Z,27.80
2018-03-11T23:56:20.524Z,25.83
2018-03-11T23:58:48.790Z,29.43
